sensor_id;sensor_type;location;lat;lon;timestamp;P1;durP1;ratioP1;P2;durP2;ratioP2
21810;SDS011;11067;48.788;9.208;2023-03-20T00:00:49;4.80;;;3.00;;
21810;SDS011;11067;48.788;9.208;2023-03-20T00:03:16;3.33;;;2.70;;
21810;SDS011;11067;48.788;9.208;2023-03-20T00:05:42;3.95;;;2.28;;
21810;SDS011;11067;48.788;9.208;2023-03-20T00:08:07;3.22;;;2.40;;
21810;SDS011;11067;48.788;9.208;2023-03-20T00:10:40;2.63;;;2.08;;
21810;SDS011;11067;48.788;9.208;2023-03-20T00:13:17;4.28;;;2.60;;
21810;SDS011;11067;48.788;9.208;2023-03-20T00:15:48;4.00;;;2.58;;
21810;SDS011;11067;48.788;9.208;2023-03-20T00:18:15;3.27;;;2.60;;
21810;SDS011;11067;48.788;9.208;2023-03-20T00:20:47;3.60;;;2.53;;
21810;SDS011;11067;48.788;9.208;2023-03-20T00:23:14;4.90;;;2.80;;
21810;SDS011;11067;48.788;9.208;2023-03-20T00:25:40;3.40;;;2.70;;
21810;SDS011;11067;48.788;9.208;2023-03-20T00:28:49;4.20;;;2.58;;
21810;SDS011;11067;48.788;9.208;2023-03-20T00:30:58;5.20;;;2.90;;
21810;SDS011;11067;48.788;9.208;2023-03-20T00:33:24;3.70;;;2.83;;
21810;SDS011;11067;48.788;9.208;2023-03-20T00:35:51;4.37;;;3.10;;
21810;SDS011;11067;48.788;9.208;2023-03-20T00:38:16;4.40;;;3.10;;
21810;SDS011;11067;48.788;9.208;2023-03-20T00:40:42;4.47;;;3.00;;
21810;SDS011;11067;48.788;9.208;2023-03-20T00:43:08;3.85;;;2.95;;
21810;SDS011;11067;48.788;9.208;2023-03-20T00:45:37;4.68;;;3.28;;
21810;SDS011;11067;48.788;9.208;2023-03-20T00:48:02;4.77;;;3.20;;
21810;SDS011;11067;48.788;9.208;2023-03-20T00:50:29;6.53;;;3.65;;
21810;SDS011;11067;48.788;9.208;2023-03-20T00:52:56;3.97;;;3.38;;
21810;SDS011;11067;48.788;9.208;2023-03-20T00:55:23;4.40;;;3.30;;
21810;SDS011;11067;48.788;9.208;2023-03-20T00:57:52;3.97;;;3.37;;
21810;SDS011;11067;48.788;9.208;2023-03-20T01:00:22;3.65;;;3.22;;
21810;SDS011;11067;48.788;9.208;2023-03-20T01:02:58;3.38;;;2.90;;
21810;SDS011;11067;48.788;9.208;2023-03-20T01:05:25;4.77;;;2.53;;
21810;SDS011;11067;48.788;9.208;2023-03-20T01:07:51;4.85;;;2.30;;
21810;SDS011;11067;48.788;9.208;2023-03-20T01:10:17;2.57;;;2.00;;
21810;SDS011;11067;48.788;9.208;2023-03-20T01:12:43;2.10;;;1.90;;
21810;SDS011;11067;48.788;9.208;2023-03-20T01:15:14;2.47;;;1.90;;
21810;SDS011;11067;48.788;9.208;2023-03-20T01:17:43;2.03;;;1.83;;
21810;SDS011;11067;48.788;9.208;2023-03-20T01:20:13;2.90;;;2.33;;
21810;SDS011;11067;48.788;9.208;2023-03-20T01:22:49;2.90;;;2.10;;
21810;SDS011;11067;48.788;9.208;2023-03-20T01:25:15;3.03;;;2.13;;
21810;SDS011;11067;48.788;9.208;2023-03-20T01:27:42;4.80;;;2.40;;
21810;SDS011;11067;48.788;9.208;2023-03-20T01:30:18;2.30;;;2.10;;
21810;SDS011;11067;48.788;9.208;2023-03-20T01:32:46;3.17;;;2.05;;
21810;SDS011;11067;48.788;9.208;2023-03-20T01:35:16;3.63;;;2.53;;
21810;SDS011;11067;48.788;9.208;2023-03-20T01:37:43;2.70;;;2.30;;
21810;SDS011;11067;48.788;9.208;2023-03-20T01:40:18;2.72;;;2.42;;
21810;SDS011;11067;48.788;9.208;2023-03-20T01:42:47;3.92;;;2.20;;
21810;SDS011;11067;48.788;9.208;2023-03-20T01:45:15;3.30;;;2.40;;
21810;SDS011;11067;48.788;9.208;2023-03-20T01:47:44;4.13;;;2.50;;
21810;SDS011;11067;48.788;9.208;2023-03-20T01:52:52;3.13;;;2.42;;
21810;SDS011;11067;48.788;9.208;2023-03-20T01:55:28;3.75;;;2.40;;
21810;SDS011;11067;48.788;9.208;2023-03-20T01:57:55;2.50;;;2.30;;
21810;SDS011;11067;48.788;9.208;2023-03-20T02:00:22;2.80;;;2.20;;
21810;SDS011;11067;48.788;9.208;2023-03-20T02:02:48;4.70;;;2.95;;
21810;SDS011;11067;48.788;9.208;2023-03-20T02:05:14;2.55;;;2.30;;
21810;SDS011;11067;48.788;9.208;2023-03-20T02:07:42;2.63;;;2.05;;
21810;SDS011;11067;48.788;9.208;2023-03-20T02:10:13;3.33;;;1.90;;
21810;SDS011;11067;48.788;9.208;2023-03-20T02:12:41;2.10;;;1.70;;
21810;SDS011;11067;48.788;9.208;2023-03-20T02:15:08;2.70;;;1.70;;
21810;SDS011;11067;48.788;9.208;2023-03-20T02:17:35;1.70;;;1.50;;
21810;SDS011;11067;48.788;9.208;2023-03-20T02:31:58;2.10;;;1.50;;
21810;SDS011;11067;48.788;9.208;2023-03-20T02:43:06;1.80;;;1.60;;
21810;SDS011;11067;48.788;9.208;2023-03-20T02:46:05;1.95;;;1.70;;
21810;SDS011;11067;48.788;9.208;2023-03-20T02:48:48;1.52;;;1.27;;
21810;SDS011;11067;48.788;9.208;2023-03-20T02:51:19;1.63;;;1.30;;
21810;SDS011;11067;48.788;9.208;2023-03-20T02:54:06;1.23;;;1.13;;
21810;SDS011;11067;48.788;9.208;2023-03-20T02:59:28;2.00;;;1.00;;
21810;SDS011;11067;48.788;9.208;2023-03-20T03:02:04;1.10;;;1.00;;
21810;SDS011;11067;48.788;9.208;2023-03-20T03:04:38;2.35;;;1.10;;
21810;SDS011;11067;48.788;9.208;2023-03-20T03:07:08;0.80;;;0.80;;
21810;SDS011;11067;48.788;9.208;2023-03-20T03:09:48;2.00;;;0.90;;
21810;SDS011;11067;48.788;9.208;2023-03-20T03:12:22;0.93;;;0.82;;
21810;SDS011;11067;48.788;9.208;2023-03-20T03:14:53;0.90;;;0.87;;
21810;SDS011;11067;48.788;9.208;2023-03-20T03:17:32;1.30;;;0.90;;
21810;SDS011;11067;48.788;9.208;2023-03-20T03:20:07;1.48;;;0.90;;
21810;SDS011;11067;48.788;9.208;2023-03-20T03:22:39;1.60;;;1.00;;
21810;SDS011;11067;48.788;9.208;2023-03-20T03:25:05;2.22;;;1.00;;
21810;SDS011;11067;48.788;9.208;2023-03-20T03:27:33;0.95;;;0.82;;
21810;SDS011;11067;48.788;9.208;2023-03-20T03:30:03;1.58;;;0.80;;
21810;SDS011;11067;48.788;9.208;2023-03-20T03:32:35;0.90;;;0.80;;
21810;SDS011;11067;48.788;9.208;2023-03-20T03:35:05;0.80;;;0.80;;
21810;SDS011;11067;48.788;9.208;2023-03-20T03:37:48;1.52;;;0.85;;
21810;SDS011;11067;48.788;9.208;2023-03-20T03:43:05;1.20;;;0.93;;
21810;SDS011;11067;48.788;9.208;2023-03-20T03:45:41;2.80;;;0.60;;
21810;SDS011;11067;48.788;9.208;2023-03-20T03:48:10;0.90;;;0.70;;
21810;SDS011;11067;48.788;9.208;2023-03-20T03:50:43;1.50;;;0.73;;
21810;SDS011;11067;48.788;9.208;2023-03-20T03:53:13;1.00;;;0.90;;
21810;SDS011;11067;48.788;9.208;2023-03-20T03:55:42;0.80;;;0.80;;
21810;SDS011;11067;48.788;9.208;2023-03-20T03:58:16;1.30;;;0.90;;
21810;SDS011;11067;48.788;9.208;2023-03-20T04:00:47;1.15;;;0.82;;
21810;SDS011;11067;48.788;9.208;2023-03-20T04:03:16;0.75;;;0.73;;
21810;SDS011;11067;48.788;9.208;2023-03-20T04:05:44;0.80;;;0.70;;
21810;SDS011;11067;48.788;9.208;2023-03-20T04:08:12;1.07;;;0.77;;
21810;SDS011;11067;48.788;9.208;2023-03-20T04:10:40;1.13;;;0.90;;
21810;SDS011;11067;48.788;9.208;2023-03-20T04:13:05;2.20;;;1.00;;
21810;SDS011;11067;48.788;9.208;2023-03-20T04:15:31;0.88;;;0.60;;
21810;SDS011;11067;48.788;9.208;2023-03-20T04:17:57;1.08;;;0.60;;
21810;SDS011;11067;48.788;9.208;2023-03-20T04:20:23;0.60;;;0.60;;
21810;SDS011;11067;48.788;9.208;2023-03-20T04:22:49;1.23;;;0.68;;
21810;SDS011;11067;48.788;9.208;2023-03-20T04:25:21;0.87;;;0.73;;
21810;SDS011;11067;48.788;9.208;2023-03-20T04:27:49;1.40;;;0.80;;
21810;SDS011;11067;48.788;9.208;2023-03-20T04:30:15;2.72;;;0.70;;
21810;SDS011;11067;48.788;9.208;2023-03-20T04:32:41;5.35;;;1.40;;
21810;SDS011;11067;48.788;9.208;2023-03-20T04:35:07;1.15;;;0.93;;
21810;SDS011;11067;48.788;9.208;2023-03-20T04:37:33;1.98;;;0.80;;
21810;SDS011;11067;48.788;9.208;2023-03-20T04:39:58;2.20;;;0.60;;
21810;SDS011;11067;48.788;9.208;2023-03-20T04:42:24;3.25;;;0.80;;
21810;SDS011;11067;48.788;9.208;2023-03-20T04:44:50;1.30;;;0.90;;
21810;SDS011;11067;48.788;9.208;2023-03-20T04:47:15;2.70;;;0.83;;
21810;SDS011;11067;48.788;9.208;2023-03-20T04:49:41;1.90;;;0.80;;
21810;SDS011;11067;48.788;9.208;2023-03-20T04:52:06;1.30;;;0.73;;
21810;SDS011;11067;48.788;9.208;2023-03-20T04:54:33;0.82;;;0.80;;
21810;SDS011;11067;48.788;9.208;2023-03-20T04:56:58;1.75;;;0.80;;
21810;SDS011;11067;48.788;9.208;2023-03-20T04:59:24;1.02;;;0.70;;
21810;SDS011;11067;48.788;9.208;2023-03-20T05:01:49;0.60;;;0.60;;
21810;SDS011;11067;48.788;9.208;2023-03-20T05:04:15;0.83;;;0.73;;
21810;SDS011;11067;48.788;9.208;2023-03-20T05:06:40;4.60;;;0.90;;
21810;SDS011;11067;48.788;9.208;2023-03-20T05:09:07;2.40;;;0.90;;
21810;SDS011;11067;48.788;9.208;2023-03-20T05:11:34;3.55;;;0.80;;
21810;SDS011;11067;48.788;9.208;2023-03-20T05:13:59;1.85;;;0.70;;
21810;SDS011;11067;48.788;9.208;2023-03-20T05:16:25;1.90;;;1.17;;
21810;SDS011;11067;48.788;9.208;2023-03-20T05:18:50;6.77;;;1.30;;
21810;SDS011;11067;48.788;9.208;2023-03-20T05:21:16;2.58;;;1.10;;
21810;SDS011;11067;48.788;9.208;2023-03-20T05:23:42;2.72;;;1.05;;
21810;SDS011;11067;48.788;9.208;2023-03-20T05:26:07;1.23;;;0.80;;
21810;SDS011;11067;48.788;9.208;2023-03-20T05:28:33;1.20;;;0.97;;
21810;SDS011;11067;48.788;9.208;2023-03-20T05:30:58;1.83;;;1.00;;
21810;SDS011;11067;48.788;9.208;2023-03-20T05:33:24;10.98;;;2.00;;
21810;SDS011;11067;48.788;9.208;2023-03-20T05:35:50;4.50;;;1.10;;
21810;SDS011;11067;48.788;9.208;2023-03-20T05:38:15;2.90;;;1.13;;
21810;SDS011;11067;48.788;9.208;2023-03-20T05:40:41;3.87;;;1.30;;
21810;SDS011;11067;48.788;9.208;2023-03-20T05:43:06;4.05;;;0.90;;
21810;SDS011;11067;48.788;9.208;2023-03-20T05:45:32;2.10;;;1.00;;
21810;SDS011;11067;48.788;9.208;2023-03-20T05:47:58;6.47;;;2.03;;
21810;SDS011;11067;48.788;9.208;2023-03-20T05:50:23;2.77;;;1.00;;
21810;SDS011;11067;48.788;9.208;2023-03-20T05:52:49;1.30;;;0.90;;
21810;SDS011;11067;48.788;9.208;2023-03-20T05:55:15;3.53;;;1.42;;
21810;SDS011;11067;48.788;9.208;2023-03-20T05:57:40;1.30;;;0.90;;
21810;SDS011;11067;48.788;9.208;2023-03-20T06:00:06;4.22;;;1.00;;
21810;SDS011;11067;48.788;9.208;2023-03-20T06:02:34;2.05;;;1.00;;
21810;SDS011;11067;48.788;9.208;2023-03-20T06:05:01;3.30;;;1.30;;
21810;SDS011;11067;48.788;9.208;2023-03-20T06:07:26;5.05;;;1.38;;
21810;SDS011;11067;48.788;9.208;2023-03-20T06:09:52;4.38;;;1.83;;
21810;SDS011;11067;48.788;9.208;2023-03-20T06:12:18;9.80;;;1.45;;
21810;SDS011;11067;48.788;9.208;2023-03-20T06:14:43;2.88;;;1.33;;
21810;SDS011;11067;48.788;9.208;2023-03-20T06:17:09;3.77;;;1.53;;
21810;SDS011;11067;48.788;9.208;2023-03-20T06:19:34;4.47;;;1.70;;
21810;SDS011;11067;48.788;9.208;2023-03-20T06:22:00;9.15;;;1.98;;
21810;SDS011;11067;48.788;9.208;2023-03-20T06:24:26;4.27;;;1.50;;
21810;SDS011;11067;48.788;9.208;2023-03-20T06:26:52;5.43;;;1.40;;
21810;SDS011;11067;48.788;9.208;2023-03-20T06:29:17;3.22;;;1.60;;
21810;SDS011;11067;48.788;9.208;2023-03-20T06:31:43;5.72;;;1.52;;
21810;SDS011;11067;48.788;9.208;2023-03-20T06:34:09;5.43;;;1.88;;
21810;SDS011;11067;48.788;9.208;2023-03-20T06:36:35;4.43;;;1.50;;
21810;SDS011;11067;48.788;9.208;2023-03-20T06:39:02;4.60;;;1.30;;
21810;SDS011;11067;48.788;9.208;2023-03-20T06:41:27;1.75;;;1.30;;
21810;SDS011;11067;48.788;9.208;2023-03-20T06:43:53;3.40;;;1.25;;
21810;SDS011;11067;48.788;9.208;2023-03-20T06:46:19;3.83;;;1.60;;
21810;SDS011;11067;48.788;9.208;2023-03-20T06:48:45;2.40;;;1.33;;
21810;SDS011;11067;48.788;9.208;2023-03-20T06:51:11;3.33;;;1.40;;
21810;SDS011;11067;48.788;9.208;2023-03-20T06:53:36;4.53;;;2.47;;
21810;SDS011;11067;48.788;9.208;2023-03-20T06:56:03;4.88;;;1.52;;
21810;SDS011;11067;48.788;9.208;2023-03-20T06:58:29;1.95;;;1.38;;
21810;SDS011;11067;48.788;9.208;2023-03-20T07:00:55;2.27;;;1.37;;
21810;SDS011;11067;48.788;9.208;2023-03-20T07:03:21;4.27;;;1.30;;
21810;SDS011;11067;48.788;9.208;2023-03-20T07:05:46;3.47;;;1.20;;
21810;SDS011;11067;48.788;9.208;2023-03-20T07:08:12;5.93;;;1.50;;
21810;SDS011;11067;48.788;9.208;2023-03-20T07:10:39;9.68;;;1.45;;
21810;SDS011;11067;48.788;9.208;2023-03-20T07:13:04;2.25;;;1.50;;
21810;SDS011;11067;48.788;9.208;2023-03-20T07:15:30;2.60;;;0.80;;
21810;SDS011;11067;48.788;9.208;2023-03-20T07:17:56;2.90;;;1.40;;
21810;SDS011;11067;48.788;9.208;2023-03-20T07:20:21;4.70;;;1.80;;
21810;SDS011;11067;48.788;9.208;2023-03-20T07:22:47;2.10;;;1.10;;
21810;SDS011;11067;48.788;9.208;2023-03-20T07:25:13;2.60;;;1.00;;
21810;SDS011;11067;48.788;9.208;2023-03-20T07:27:39;2.65;;;1.10;;
21810;SDS011;11067;48.788;9.208;2023-03-20T07:30:05;2.75;;;1.45;;
21810;SDS011;11067;48.788;9.208;2023-03-20T07:32:32;2.08;;;1.20;;
21810;SDS011;11067;48.788;9.208;2023-03-20T07:34:58;1.90;;;1.00;;
21810;SDS011;11067;48.788;9.208;2023-03-20T07:37:24;1.33;;;1.10;;
21810;SDS011;11067;48.788;9.208;2023-03-20T07:39:50;1.50;;;1.33;;
21810;SDS011;11067;48.788;9.208;2023-03-20T07:42:16;5.53;;;1.45;;
21810;SDS011;11067;48.788;9.208;2023-03-20T07:44:41;3.47;;;1.30;;
21810;SDS011;11067;48.788;9.208;2023-03-20T07:47:07;2.93;;;1.33;;
21810;SDS011;11067;48.788;9.208;2023-03-20T07:49:33;4.03;;;1.33;;
21810;SDS011;11067;48.788;9.208;2023-03-20T07:51:59;2.80;;;1.60;;
21810;SDS011;11067;48.788;9.208;2023-03-20T07:54:25;3.43;;;1.23;;
21810;SDS011;11067;48.788;9.208;2023-03-20T07:56:51;1.23;;;1.13;;
21810;SDS011;11067;48.788;9.208;2023-03-20T07:59:17;2.07;;;1.37;;
21810;SDS011;11067;48.788;9.208;2023-03-20T08:01:43;3.50;;;1.40;;
21810;SDS011;11067;48.788;9.208;2023-03-20T08:04:09;1.83;;;1.33;;
21810;SDS011;11067;48.788;9.208;2023-03-20T08:06:35;3.97;;;1.40;;
21810;SDS011;11067;48.788;9.208;2023-03-20T08:09:03;3.65;;;1.83;;
21810;SDS011;11067;48.788;9.208;2023-03-20T08:11:29;2.72;;;1.45;;
21810;SDS011;11067;48.788;9.208;2023-03-20T08:13:54;3.45;;;1.60;;
21810;SDS011;11067;48.788;9.208;2023-03-20T08:16:20;1.50;;;1.10;;
21810;SDS011;11067;48.788;9.208;2023-03-20T08:18:45;2.53;;;1.43;;
21810;SDS011;11067;48.788;9.208;2023-03-20T08:21:11;5.78;;;1.40;;
21810;SDS011;11067;48.788;9.208;2023-03-20T08:23:37;3.23;;;1.53;;
21810;SDS011;11067;48.788;9.208;2023-03-20T08:26:02;2.37;;;1.30;;
21810;SDS011;11067;48.788;9.208;2023-03-20T08:28:28;2.92;;;1.23;;
21810;SDS011;11067;48.788;9.208;2023-03-20T08:30:53;1.80;;;1.27;;
21810;SDS011;11067;48.788;9.208;2023-03-20T08:33:19;1.50;;;1.00;;
21810;SDS011;11067;48.788;9.208;2023-03-20T08:35:54;3.42;;;1.30;;
21810;SDS011;11067;48.788;9.208;2023-03-20T08:38:23;2.10;;;1.30;;
21810;SDS011;11067;48.788;9.208;2023-03-20T08:40:49;2.30;;;1.30;;
21810;SDS011;11067;48.788;9.208;2023-03-20T08:43:14;2.40;;;1.60;;
21810;SDS011;11067;48.788;9.208;2023-03-20T08:45:40;3.80;;;1.30;;
21810;SDS011;11067;48.788;9.208;2023-03-20T08:48:05;1.67;;;1.17;;
21810;SDS011;11067;48.788;9.208;2023-03-20T08:50:31;1.50;;;1.20;;
21810;SDS011;11067;48.788;9.208;2023-03-20T08:52:57;3.10;;;1.90;;
21810;SDS011;11067;48.788;9.208;2023-03-20T08:55:22;1.27;;;0.98;;
21810;SDS011;11067;48.788;9.208;2023-03-20T08:57:48;4.50;;;1.40;;
21810;SDS011;11067;48.788;9.208;2023-03-20T09:00:14;1.77;;;1.40;;
21810;SDS011;11067;48.788;9.208;2023-03-20T09:02:40;2.05;;;1.10;;
21810;SDS011;11067;48.788;9.208;2023-03-20T09:05:07;1.60;;;1.00;;
21810;SDS011;11067;48.788;9.208;2023-03-20T09:07:33;2.37;;;1.23;;
21810;SDS011;11067;48.788;9.208;2023-03-20T09:09:59;3.77;;;1.67;;
21810;SDS011;11067;48.788;9.208;2023-03-20T09:12:25;2.47;;;0.95;;
21810;SDS011;11067;48.788;9.208;2023-03-20T09:14:50;2.30;;;1.08;;
21810;SDS011;11067;48.788;9.208;2023-03-20T09:17:16;1.57;;;0.90;;
21810;SDS011;11067;48.788;9.208;2023-03-20T09:19:41;3.40;;;1.33;;
21810;SDS011;11067;48.788;9.208;2023-03-20T09:22:10;1.30;;;1.00;;
21810;SDS011;11067;48.788;9.208;2023-03-20T09:24:37;1.65;;;1.10;;
21810;SDS011;11067;48.788;9.208;2023-03-20T09:27:03;1.70;;;1.05;;
21810;SDS011;11067;48.788;9.208;2023-03-20T09:29:29;2.40;;;1.15;;
21810;SDS011;11067;48.788;9.208;2023-03-20T09:31:54;4.00;;;1.40;;
21810;SDS011;11067;48.788;9.208;2023-03-20T09:34:20;2.90;;;0.90;;
21810;SDS011;11067;48.788;9.208;2023-03-20T09:36:46;1.60;;;1.13;;
21810;SDS011;11067;48.788;9.208;2023-03-20T09:39:11;1.73;;;1.10;;
21810;SDS011;11067;48.788;9.208;2023-03-20T09:41:37;3.90;;;1.13;;
21810;SDS011;11067;48.788;9.208;2023-03-20T09:47:06;1.60;;;1.20;;
21810;SDS011;11067;48.788;9.208;2023-03-20T09:52:47;1.50;;;1.00;;
21810;SDS011;11067;48.788;9.208;2023-03-20T09:55:38;2.55;;;1.13;;
21810;SDS011;11067;48.788;9.208;2023-03-20T09:58:20;1.20;;;1.10;;
21810;SDS011;11067;48.788;9.208;2023-03-20T10:00:47;1.20;;;1.00;;
21810;SDS011;11067;48.788;9.208;2023-03-20T10:05:43;1.20;;;0.93;;
21810;SDS011;11067;48.788;9.208;2023-03-20T10:08:12;1.67;;;1.02;;
21810;SDS011;11067;48.788;9.208;2023-03-20T10:10:51;1.73;;;1.40;;
21810;SDS011;11067;48.788;9.208;2023-03-20T10:18:42;1.52;;;1.15;;
21810;SDS011;11067;48.788;9.208;2023-03-20T10:21:15;1.27;;;1.17;;
21810;SDS011;11067;48.788;9.208;2023-03-20T10:23:49;1.52;;;1.30;;
21810;SDS011;11067;48.788;9.208;2023-03-20T10:26:34;1.48;;;1.10;;
21810;SDS011;11067;48.788;9.208;2023-03-20T10:29:04;2.00;;;1.80;;
21810;SDS011;11067;48.788;9.208;2023-03-20T10:39:39;7.57;;;1.90;;
21810;SDS011;11067;48.788;9.208;2023-03-20T10:42:29;1.20;;;1.10;;
21810;SDS011;11067;48.788;9.208;2023-03-20T10:48:00;1.98;;;1.30;;
21810;SDS011;11067;48.788;9.208;2023-03-20T10:50:38;1.88;;;1.40;;
21810;SDS011;11067;48.788;9.208;2023-03-20T10:53:26;2.45;;;1.50;;
21810;SDS011;11067;48.788;9.208;2023-03-20T10:56:04;2.22;;;1.50;;
21810;SDS011;11067;48.788;9.208;2023-03-20T10:58:34;2.23;;;1.70;;
21810;SDS011;11067;48.788;9.208;2023-03-20T11:01:11;2.70;;;2.00;;
21810;SDS011;11067;48.788;9.208;2023-03-20T11:03:39;5.77;;;1.90;;
21810;SDS011;11067;48.788;9.208;2023-03-20T11:06:07;2.10;;;1.50;;
21810;SDS011;11067;48.788;9.208;2023-03-20T11:08:41;2.37;;;1.70;;
21810;SDS011;11067;48.788;9.208;2023-03-20T11:11:12;3.28;;;1.90;;
21810;SDS011;11067;48.788;9.208;2023-03-20T11:13:42;2.92;;;1.92;;
21810;SDS011;11067;48.788;9.208;2023-03-20T11:19:03;4.18;;;2.20;;
21810;SDS011;11067;48.788;9.208;2023-03-20T11:21:31;5.40;;;3.30;;
21810;SDS011;11067;48.788;9.208;2023-03-20T11:23:58;4.05;;;2.67;;
21810;SDS011;11067;48.788;9.208;2023-03-20T11:26:35;6.10;;;3.20;;
21810;SDS011;11067;48.788;9.208;2023-03-20T11:29:06;3.42;;;2.60;;
21810;SDS011;11067;48.788;9.208;2023-03-20T11:31:41;4.53;;;3.17;;
21810;SDS011;11067;48.788;9.208;2023-03-20T11:36:38;4.53;;;3.00;;
21810;SDS011;11067;48.788;9.208;2023-03-20T11:41:49;4.30;;;3.13;;
21810;SDS011;11067;48.788;9.208;2023-03-20T11:44:21;4.35;;;2.95;;
21810;SDS011;11067;48.788;9.208;2023-03-20T11:46:55;3.37;;;2.87;;
21810;SDS011;11067;48.788;9.208;2023-03-20T11:49:27;4.07;;;2.95;;
21810;SDS011;11067;48.788;9.208;2023-03-20T11:52:01;3.85;;;2.97;;
21810;SDS011;11067;48.788;9.208;2023-03-20T11:54:35;6.50;;;3.65;;
21810;SDS011;11067;48.788;9.208;2023-03-20T11:57:02;6.53;;;3.77;;
21810;SDS011;11067;48.788;9.208;2023-03-20T11:59:31;5.03;;;3.80;;
21810;SDS011;11067;48.788;9.208;2023-03-20T12:02:00;5.17;;;3.20;;
21810;SDS011;11067;48.788;9.208;2023-03-20T12:04:35;7.45;;;3.55;;
21810;SDS011;11067;48.788;9.208;2023-03-20T12:07:03;4.15;;;3.00;;
21810;SDS011;11067;48.788;9.208;2023-03-20T12:10:05;5.85;;;3.35;;
21810;SDS011;11067;48.788;9.208;2023-03-20T12:12:39;5.03;;;3.67;;
21810;SDS011;11067;48.788;9.208;2023-03-20T12:15:22;4.93;;;3.30;;
21810;SDS011;11067;48.788;9.208;2023-03-20T12:17:56;5.28;;;3.60;;
21810;SDS011;11067;48.788;9.208;2023-03-20T12:23:36;4.55;;;3.28;;
21810;SDS011;11067;48.788;9.208;2023-03-20T12:26:14;3.90;;;2.92;;
21810;SDS011;11067;48.788;9.208;2023-03-20T12:31:16;6.23;;;3.33;;
21810;SDS011;11067;48.788;9.208;2023-03-20T12:36:29;9.38;;;3.72;;
21810;SDS011;11067;48.788;9.208;2023-03-20T12:38:57;6.47;;;3.30;;
21810;SDS011;11067;48.788;9.208;2023-03-20T12:41:24;4.45;;;3.08;;
21810;SDS011;11067;48.788;9.208;2023-03-20T12:44:03;6.57;;;3.55;;
21810;SDS011;11067;48.788;9.208;2023-03-20T12:47:06;4.82;;;2.95;;
21810;SDS011;11067;48.788;9.208;2023-03-20T12:52:58;5.30;;;3.35;;
21810;SDS011;11067;48.788;9.208;2023-03-20T12:55:53;7.40;;;3.67;;
21810;SDS011;11067;48.788;9.208;2023-03-20T13:01:21;6.33;;;3.40;;
21810;SDS011;11067;48.788;9.208;2023-03-20T13:07:00;5.60;;;3.30;;
21810;SDS011;11067;48.788;9.208;2023-03-20T13:12:34;6.78;;;3.40;;
21810;SDS011;11067;48.788;9.208;2023-03-20T13:20:46;4.57;;;3.08;;
21810;SDS011;11067;48.788;9.208;2023-03-20T13:26:11;4.07;;;2.90;;
21810;SDS011;11067;48.788;9.208;2023-03-20T13:29:01;5.47;;;3.28;;
21810;SDS011;11067;48.788;9.208;2023-03-20T13:34:46;4.00;;;2.80;;
21810;SDS011;11067;48.788;9.208;2023-03-20T13:37:39;6.85;;;3.03;;
21810;SDS011;11067;48.788;9.208;2023-03-20T13:40:21;4.45;;;2.80;;
21810;SDS011;11067;48.788;9.208;2023-03-20T13:42:57;4.57;;;3.20;;
21810;SDS011;11067;48.788;9.208;2023-03-20T13:45:43;5.22;;;3.00;;
21810;SDS011;11067;48.788;9.208;2023-03-20T13:51:09;4.30;;;2.85;;
21810;SDS011;11067;48.788;9.208;2023-03-20T13:54:02;5.30;;;2.87;;
21810;SDS011;11067;48.788;9.208;2023-03-20T13:56:34;6.03;;;3.05;;
21810;SDS011;11067;48.788;9.208;2023-03-20T13:59:23;3.97;;;2.78;;
21810;SDS011;11067;48.788;9.208;2023-03-20T14:04:37;5.68;;;2.80;;
21810;SDS011;11067;48.788;9.208;2023-03-20T14:07:25;3.33;;;2.50;;
21810;SDS011;11067;48.788;9.208;2023-03-20T14:09:54;3.72;;;2.50;;
21810;SDS011;11067;48.788;9.208;2023-03-20T14:12:22;6.65;;;2.50;;
21810;SDS011;11067;48.788;9.208;2023-03-20T14:17:31;4.78;;;2.70;;
21810;SDS011;11067;48.788;9.208;2023-03-20T14:19:57;3.75;;;2.42;;
21810;SDS011;11067;48.788;9.208;2023-03-20T14:22:37;4.38;;;2.95;;
21810;SDS011;11067;48.788;9.208;2023-03-20T14:25:05;3.70;;;2.53;;
21810;SDS011;11067;48.788;9.208;2023-03-20T14:27:34;7.10;;;3.00;;
21810;SDS011;11067;48.788;9.208;2023-03-20T14:33:04;3.83;;;2.80;;
21810;SDS011;11067;48.788;9.208;2023-03-20T14:35:45;6.03;;;3.10;;
21810;SDS011;11067;48.788;9.208;2023-03-20T14:38:43;5.78;;;2.38;;
21810;SDS011;11067;48.788;9.208;2023-03-20T14:48:03;5.95;;;2.45;;
21810;SDS011;11067;48.788;9.208;2023-03-20T14:53:57;4.05;;;2.30;;
21810;SDS011;11067;48.788;9.208;2023-03-20T14:56:45;4.93;;;3.40;;
21810;SDS011;11067;48.788;9.208;2023-03-20T14:59:12;3.65;;;2.30;;
21810;SDS011;11067;48.788;9.208;2023-03-20T15:01:45;3.30;;;2.30;;
21810;SDS011;11067;48.788;9.208;2023-03-20T15:07:05;4.68;;;2.90;;
21810;SDS011;11067;48.788;9.208;2023-03-20T15:09:35;4.35;;;2.55;;
21810;SDS011;11067;48.788;9.208;2023-03-20T15:12:07;5.78;;;2.53;;
21810;SDS011;11067;48.788;9.208;2023-03-20T15:14:36;5.72;;;2.50;;
21810;SDS011;11067;48.788;9.208;2023-03-20T15:17:18;4.65;;;2.45;;
21810;SDS011;11067;48.788;9.208;2023-03-20T15:19:46;2.92;;;2.20;;
21810;SDS011;11067;48.788;9.208;2023-03-20T15:22:16;6.07;;;2.30;;
21810;SDS011;11067;48.788;9.208;2023-03-20T15:24:50;4.73;;;2.30;;
21810;SDS011;11067;48.788;9.208;2023-03-20T15:27:17;6.32;;;2.70;;
21810;SDS011;11067;48.788;9.208;2023-03-20T15:29:46;5.50;;;2.28;;
21810;SDS011;11067;48.788;9.208;2023-03-20T15:32:15;3.87;;;2.77;;
21810;SDS011;11067;48.788;9.208;2023-03-20T15:34:41;3.97;;;2.10;;
21810;SDS011;11067;48.788;9.208;2023-03-20T15:37:10;3.20;;;2.30;;
21810;SDS011;11067;48.788;9.208;2023-03-20T15:39:52;5.05;;;2.88;;
21810;SDS011;11067;48.788;9.208;2023-03-20T15:42:20;4.60;;;2.60;;
21810;SDS011;11067;48.788;9.208;2023-03-20T15:44:48;5.77;;;2.33;;
21810;SDS011;11067;48.788;9.208;2023-03-20T15:47:17;4.77;;;2.57;;
21810;SDS011;11067;48.788;9.208;2023-03-20T15:49:54;4.55;;;2.72;;
21810;SDS011;11067;48.788;9.208;2023-03-20T15:52:32;4.15;;;2.58;;
21810;SDS011;11067;48.788;9.208;2023-03-20T15:55:05;4.88;;;2.40;;
21810;SDS011;11067;48.788;9.208;2023-03-20T15:57:37;6.38;;;3.22;;
21810;SDS011;11067;48.788;9.208;2023-03-20T16:00:05;5.55;;;2.45;;
21810;SDS011;11067;48.788;9.208;2023-03-20T16:02:37;7.50;;;2.40;;
21810;SDS011;11067;48.788;9.208;2023-03-20T16:05:03;6.47;;;2.53;;
21810;SDS011;11067;48.788;9.208;2023-03-20T16:07:29;6.45;;;2.85;;
21810;SDS011;11067;48.788;9.208;2023-03-20T16:09:57;3.25;;;2.22;;
21810;SDS011;11067;48.788;9.208;2023-03-20T16:12:23;4.70;;;2.38;;
21810;SDS011;11067;48.788;9.208;2023-03-20T16:14:50;2.90;;;1.60;;
21810;SDS011;11067;48.788;9.208;2023-03-20T16:17:17;3.33;;;1.60;;
21810;SDS011;11067;48.788;9.208;2023-03-20T16:19:44;3.15;;;1.40;;
21810;SDS011;11067;48.788;9.208;2023-03-20T16:22:14;3.40;;;1.48;;
21810;SDS011;11067;48.788;9.208;2023-03-20T16:24:46;3.67;;;1.25;;
21810;SDS011;11067;48.788;9.208;2023-03-20T16:27:18;4.93;;;2.05;;
21810;SDS011;11067;48.788;9.208;2023-03-20T16:29:49;2.50;;;1.38;;
21810;SDS011;11067;48.788;9.208;2023-03-20T16:32:22;3.95;;;1.90;;
21810;SDS011;11067;48.788;9.208;2023-03-20T16:35:07;2.83;;;1.20;;
21810;SDS011;11067;48.788;9.208;2023-03-20T16:37:52;4.05;;;1.40;;
21810;SDS011;11067;48.788;9.208;2023-03-20T16:40:20;2.08;;;1.27;;
21810;SDS011;11067;48.788;9.208;2023-03-20T16:42:52;4.30;;;1.63;;
21810;SDS011;11067;48.788;9.208;2023-03-20T16:45:24;3.27;;;1.30;;
21810;SDS011;11067;48.788;9.208;2023-03-20T16:50:44;2.03;;;1.40;;
21810;SDS011;11067;48.788;9.208;2023-03-20T16:53:15;2.42;;;1.40;;
21810;SDS011;11067;48.788;9.208;2023-03-20T16:55:45;3.70;;;1.40;;
21810;SDS011;11067;48.788;9.208;2023-03-20T16:58:19;2.97;;;1.40;;
21810;SDS011;11067;48.788;9.208;2023-03-20T17:00:51;2.63;;;1.30;;
21810;SDS011;11067;48.788;9.208;2023-03-20T17:04:11;2.17;;;1.50;;
21810;SDS011;11067;48.788;9.208;2023-03-20T17:08:48;3.65;;;1.50;;